sensor_id;sensor_type;location;lat;lon;timestamp;temperature;humidity
14850;DHT22;7517;48.400;11.770;2022-09-12T00:00:42;16.70;74.10
14850;DHT22;7517;48.400;11.770;2022-09-12T00:03:09;16.60;74.00
14850;DHT22;7517;48.400;11.770;2022-09-12T00:05:40;16.60;74.00
14850;DHT22;7517;48.400;11.770;2022-09-12T00:08:07;16.60;74.10
14850;DHT22;7517;48.400;11.770;2022-09-12T00:10:37;16.60;74.20
14850;DHT22;7517;48.400;11.770;2022-09-12T00:13:04;16.60;74.30
14850;DHT22;7517;48.400;11.770;2022-09-12T00:15:37;16.50;74.30
14850;DHT22;7517;48.400;11.770;2022-09-12T00:18:07;16.50;74.50
14850;DHT22;7517;48.400;11.770;2022-09-12T00:20:35;16.50;74.60
14850;DHT22;7517;48.400;11.770;2022-09-12T00:23:06;16.50;74.70
14850;DHT22;7517;48.400;11.770;2022-09-12T00:25:33;16.40;74.80
14850;DHT22;7517;48.400;11.770;2022-09-12T00:28:00;16.40;75.70
14850;DHT22;7517;48.400;11.770;2022-09-12T00:30:28;16.40;75.20
14850;DHT22;7517;48.400;11.770;2022-09-12T00:32:55;16.40;75.20
14850;DHT22;7517;48.400;11.770;2022-09-12T00:35:24;16.40;75.20
14850;DHT22;7517;48.400;11.770;2022-09-12T00:37:51;16.40;75.20
14850;DHT22;7517;48.400;11.770;2022-09-12T00:40:18;16.30;75.10
14850;DHT22;7517;48.400;11.770;2022-09-12T00:42:45;16.30;75.20
14850;DHT22;7517;48.400;11.770;2022-09-12T00:45:19;16.30;75.20
14850;DHT22;7517;48.400;11.770;2022-09-12T00:47:49;16.30;75.10
14850;DHT22;7517;48.400;11.770;2022-09-12T00:50:17;16.30;75.00
14850;DHT22;7517;48.400;11.770;2022-09-12T00:52:48;16.30;75.00
14850;DHT22;7517;48.400;11.770;2022-09-12T00:55:20;16.30;75.20
14850;DHT22;7517;48.400;11.770;2022-09-12T00:57:53;16.30;75.30
14850;DHT22;7517;48.400;11.770;2022-09-12T01:00:25;16.30;76.20
14850;DHT22;7517;48.400;11.770;2022-09-12T01:02:57;16.20;75.40
14850;DHT22;7517;48.400;11.770;2022-09-12T01:05:27;16.20;75.30
14850;DHT22;7517;48.400;11.770;2022-09-12T01:08:02;16.20;75.30
14850;DHT22;7517;48.400;11.770;2022-09-12T01:10:31;16.20;75.50
14850;DHT22;7517;48.400;11.770;2022-09-12T01:13:02;16.20;75.70
14850;DHT22;7517;48.400;11.770;2022-09-12T01:15:31;16.20;76.50
14850;DHT22;7517;48.400;11.770;2022-09-12T01:18:09;16.10;75.90
14850;DHT22;7517;48.400;11.770;2022-09-12T01:21:05;16.20;76.20
14850;DHT22;7517;48.400;11.770;2022-09-12T01:30:42;16.10;76.20
14850;DHT22;7517;48.400;11.770;2022-09-12T01:33:24;16.10;76.10
14850;DHT22;7517;48.400;11.770;2022-09-12T01:39:02;16.10;77.00
14850;DHT22;7517;48.400;11.770;2022-09-12T01:41:39;16.00;76.10
14850;DHT22;7517;48.400;11.770;2022-09-12T01:44:22;16.00;76.20
14850;DHT22;7517;48.400;11.770;2022-09-12T01:47:01;16.00;76.20
14850;DHT22;7517;48.400;11.770;2022-09-12T01:49:38;15.90;76.20
14850;DHT22;7517;48.400;11.770;2022-09-12T01:52:17;15.90;76.20
14850;DHT22;7517;48.400;11.770;2022-09-12T01:54:52;15.90;76.30
14850;DHT22;7517;48.400;11.770;2022-09-12T01:57:27;15.90;76.30
14850;DHT22;7517;48.400;11.770;2022-09-12T02:00:03;15.90;76.40
14850;DHT22;7517;48.400;11.770;2022-09-12T02:02:37;15.90;76.60
14850;DHT22;7517;48.400;11.770;2022-09-12T02:05:08;15.80;76.60
14850;DHT22;7517;48.400;11.770;2022-09-12T02:07:42;15.80;76.60
14850;DHT22;7517;48.400;11.770;2022-09-12T02:10:13;15.80;76.50
14850;DHT22;7517;48.400;11.770;2022-09-12T02:12:46;15.80;76.40
14850;DHT22;7517;48.400;11.770;2022-09-12T02:15:20;15.80;76.30
14850;DHT22;7517;48.400;11.770;2022-09-12T02:17:58;15.80;76.30
14850;DHT22;7517;48.400;11.770;2022-09-12T02:20:30;15.80;76.50
14850;DHT22;7517;48.400;11.770;2022-09-12T02:23:02;15.70;76.70
14850;DHT22;7517;48.400;11.770;2022-09-12T02:25:37;15.70;76.80
14850;DHT22;7517;48.400;11.770;2022-09-12T02:28:11;15.80;76.70
14850;DHT22;7517;48.400;11.770;2022-09-12T02:30:48;15.70;77.30
14850;DHT22;7517;48.400;11.770;2022-09-12T02:33:26;15.80;76.60
14850;DHT22;7517;48.400;11.770;2022-09-12T02:36:01;15.80;76.50
14850;DHT22;7517;48.400;11.770;2022-09-12T02:38:43;15.70;76.40
14850;DHT22;7517;48.400;11.770;2022-09-12T02:41:13;15.70;76.50
14850;DHT22;7517;48.400;11.770;2022-09-12T02:43:43;15.70;76.40
14850;DHT22;7517;48.400;11.770;2022-09-12T02:46:15;15.70;76.30
14850;DHT22;7517;48.400;11.770;2022-09-12T02:48:47;15.70;76.20
14850;DHT22;7517;48.400;11.770;2022-09-12T02:51:15;15.70;76.10
14850;DHT22;7517;48.400;11.770;2022-09-12T02:53:42;15.70;76.00
14850;DHT22;7517;48.400;11.770;2022-09-12T02:56:13;15.70;76.70
14850;DHT22;7517;48.400;11.770;2022-09-12T02:58:44;15.70;76.00
14850;DHT22;7517;48.400;11.770;2022-09-12T03:01:18;15.70;76.00
14850;DHT22;7517;48.400;11.770;2022-09-12T03:04:15;15.70;75.90
14850;DHT22;7517;48.400;11.770;2022-09-12T03:07:02;15.70;75.80
14850;DHT22;7517;48.400;11.770;2022-09-12T03:09:44;15.60;75.80
14850;DHT22;7517;48.400;11.770;2022-09-12T03:12:25;15.60;75.70
14850;DHT22;7517;48.400;11.770;2022-09-12T03:15:24;15.60;75.70
14850;DHT22;7517;48.400;11.770;2022-09-12T03:18:07;15.60;75.70
14850;DHT22;7517;48.400;11.770;2022-09-12T03:20:52;15.60;75.60
14850;DHT22;7517;48.400;11.770;2022-09-12T03:23:30;15.50;75.70
14850;DHT22;7517;48.400;11.770;2022-09-12T03:26:05;15.50;76.00
14850;DHT22;7517;48.400;11.770;2022-09-12T03:28:39;15.50;76.10
14850;DHT22;7517;48.400;11.770;2022-09-12T03:31:12;15.50;76.20
14850;DHT22;7517;48.400;11.770;2022-09-12T03:33:41;15.40;76.30
14850;DHT22;7517;48.400;11.770;2022-09-12T03:36:15;15.40;76.20
14850;DHT22;7517;48.400;11.770;2022-09-12T03:38:45;15.40;76.40
14850;DHT22;7517;48.400;11.770;2022-09-12T03:41:12;15.40;76.30
14850;DHT22;7517;48.400;11.770;2022-09-12T03:43:39;15.40;76.40
14850;DHT22;7517;48.400;11.770;2022-09-12T03:46:06;15.30;76.30
14850;DHT22;7517;48.400;11.770;2022-09-12T03:48:33;15.30;76.10
14850;DHT22;7517;48.400;11.770;2022-09-12T03:51:01;15.30;76.10
14850;DHT22;7517;48.400;11.770;2022-09-12T03:53:31;15.30;76.10
14850;DHT22;7517;48.400;11.770;2022-09-12T03:55:58;15.30;76.20
14850;DHT22;7517;48.400;11.770;2022-09-12T03:58:29;15.30;76.30
14850;DHT22;7517;48.400;11.770;2022-09-12T04:00:58;15.20;76.50
14850;DHT22;7517;48.400;11.770;2022-09-12T04:03:25;15.20;76.50
14850;DHT22;7517;48.400;11.770;2022-09-12T04:05:52;15.20;76.40
14850;DHT22;7517;48.400;11.770;2022-09-12T04:08:19;15.20;76.30
14850;DHT22;7517;48.400;11.770;2022-09-12T04:10:47;15.20;76.90
14850;DHT22;7517;48.400;11.770;2022-09-12T04:13:14;15.20;76.00
14850;DHT22;7517;48.400;11.770;2022-09-12T04:15:41;15.20;75.90
14850;DHT22;7517;48.400;11.770;2022-09-12T04:18:09;15.20;76.00
14850;DHT22;7517;48.400;11.770;2022-09-12T04:20:36;15.20;76.00
14850;DHT22;7517;48.400;11.770;2022-09-12T04:23:03;15.10;75.90
14850;DHT22;7517;48.400;11.770;2022-09-12T04:25:30;15.10;75.80
14850;DHT22;7517;48.400;11.770;2022-09-12T04:27:58;15.10;75.60
14850;DHT22;7517;48.400;11.770;2022-09-12T04:30:25;15.10;75.50
14850;DHT22;7517;48.400;11.770;2022-09-12T04:32:52;15.10;75.40
14850;DHT22;7517;48.400;11.770;2022-09-12T04:35:19;15.00;75.30
14850;DHT22;7517;48.400;11.770;2022-09-12T04:37:46;15.00;75.20
14850;DHT22;7517;48.400;11.770;2022-09-12T04:40:13;15.00;75.20
14850;DHT22;7517;48.400;11.770;2022-09-12T04:42:41;15.00;75.30
14850;DHT22;7517;48.400;11.770;2022-09-12T04:45:09;14.90;75.30
14850;DHT22;7517;48.400;11.770;2022-09-12T04:47:37;14.90;75.40
14850;DHT22;7517;48.400;11.770;2022-09-12T04:50:05;14.90;76.00
14850;DHT22;7517;48.400;11.770;2022-09-12T04:52:33;14.90;75.20
14850;DHT22;7517;48.400;11.770;2022-09-12T04:55:00;14.80;75.00
14850;DHT22;7517;48.400;11.770;2022-09-12T04:57:27;14.80;74.90
14850;DHT22;7517;48.400;11.770;2022-09-12T04:59:54;14.80;74.80
14850;DHT22;7517;48.400;11.770;2022-09-12T05:02:22;14.80;74.90
14850;DHT22;7517;48.400;11.770;2022-09-12T05:04:49;14.80;75.00
14850;DHT22;7517;48.400;11.770;2022-09-12T05:07:17;14.70;74.90
14850;DHT22;7517;48.400;11.770;2022-09-12T05:09:44;14.70;74.90
14850;DHT22;7517;48.400;11.770;2022-09-12T05:12:11;14.70;75.00
14850;DHT22;7517;48.400;11.770;2022-09-12T05:14:39;14.70;75.00
14850;DHT22;7517;48.400;11.770;2022-09-12T05:17:06;14.70;75.00
14850;DHT22;7517;48.400;11.770;2022-09-12T05:19:35;14.70;75.00
14850;DHT22;7517;48.400;11.770;2022-09-12T05:22:02;14.60;75.10
14850;DHT22;7517;48.400;11.770;2022-09-12T05:24:31;14.60;75.20
14850;DHT22;7517;48.400;11.770;2022-09-12T05:26:58;14.60;75.20
14850;DHT22;7517;48.400;11.770;2022-09-12T05:29:25;14.60;76.00
14850;DHT22;7517;48.400;11.770;2022-09-12T05:31:52;14.60;75.40
14850;DHT22;7517;48.400;11.770;2022-09-12T05:34:20;14.60;75.60
14850;DHT22;7517;48.400;11.770;2022-09-12T05:36:49;14.60;75.80
14850;DHT22;7517;48.400;11.770;2022-09-12T05:39:16;14.60;75.90
14850;DHT22;7517;48.400;11.770;2022-09-12T05:41:44;14.60;76.00
14850;DHT22;7517;48.400;11.770;2022-09-12T05:44:12;14.60;76.20
14850;DHT22;7517;48.400;11.770;2022-09-12T05:46:40;14.70;76.40
14850;DHT22;7517;48.400;11.770;2022-09-12T05:49:10;14.70;76.40
14850;DHT22;7517;48.400;11.770;2022-09-12T05:51:41;14.70;76.60
14850;DHT22;7517;48.400;11.770;2022-09-12T05:54:13;14.70;76.80
14850;DHT22;7517;48.400;11.770;2022-09-12T05:56:42;14.70;77.00
14850;DHT22;7517;48.400;11.770;2022-09-12T05:59:11;14.80;77.20
14850;DHT22;7517;48.400;11.770;2022-09-12T06:01:41;14.80;77.40
14850;DHT22;7517;48.400;11.770;2022-09-12T06:04:08;14.80;77.50
14850;DHT22;7517;48.400;11.770;2022-09-12T06:06:37;14.90;77.60
14850;DHT22;7517;48.400;11.770;2022-09-12T06:09:06;14.90;77.80
14850;DHT22;7517;48.400;11.770;2022-09-12T06:11:36;15.00;77.90
14850;DHT22;7517;48.400;11.770;2022-09-12T06:14:05;15.00;78.00
14850;DHT22;7517;48.400;11.770;2022-09-12T06:16:33;15.10;78.10
14850;DHT22;7517;48.400;11.770;2022-09-12T06:19:03;15.10;78.00
14850;DHT22;7517;48.400;11.770;2022-09-12T06:21:32;15.10;78.10
14850;DHT22;7517;48.400;11.770;2022-09-12T06:24:01;15.20;78.40
14850;DHT22;7517;48.400;11.770;2022-09-12T06:26:28;15.20;78.60
14850;DHT22;7517;48.400;11.770;2022-09-12T06:28:59;15.30;78.60
14850;DHT22;7517;48.400;11.770;2022-09-12T06:31:28;15.40;78.80
14850;DHT22;7517;48.400;11.770;2022-09-12T06:33:59;15.40;78.90
14850;DHT22;7517;48.400;11.770;2022-09-12T06:36:29;15.40;78.90
14850;DHT22;7517;48.400;11.770;2022-09-12T06:38:59;15.50;79.00
14850;DHT22;7517;48.400;11.770;2022-09-12T06:41:29;15.50;79.00
14850;DHT22;7517;48.400;11.770;2022-09-12T06:43:59;15.60;79.10
14850;DHT22;7517;48.400;11.770;2022-09-12T06:46:27;15.70;79.10
14850;DHT22;7517;48.400;11.770;2022-09-12T06:48:57;15.70;79.10
14850;DHT22;7517;48.400;11.770;2022-09-12T06:51:25;15.80;79.10
14850;DHT22;7517;48.400;11.770;2022-09-12T06:53:54;15.80;79.10
14850;DHT22;7517;48.400;11.770;2022-09-12T06:56:23;15.90;79.90
14850;DHT22;7517;48.400;11.770;2022-09-12T06:58:52;16.00;79.20
14850;DHT22;7517;48.400;11.770;2022-09-12T07:01:25;16.00;79.20
14850;DHT22;7517;48.400;11.770;2022-09-12T07:03:54;16.10;79.30
14850;DHT22;7517;48.400;11.770;2022-09-12T07:06:25;16.10;79.30
14850;DHT22;7517;48.400;11.770;2022-09-12T07:08:56;16.20;79.40
14850;DHT22;7517;48.400;11.770;2022-09-12T07:11:25;16.30;79.50
14850;DHT22;7517;48.400;11.770;2022-09-12T07:13:55;16.30;79.50
14850;DHT22;7517;48.400;11.770;2022-09-12T07:16:25;16.40;79.50
14850;DHT22;7517;48.400;11.770;2022-09-12T07:18:53;16.50;79.70
14850;DHT22;7517;48.400;11.770;2022-09-12T07:21:22;16.60;79.80
14850;DHT22;7517;48.400;11.770;2022-09-12T07:23:49;16.60;79.80
14850;DHT22;7517;48.400;11.770;2022-09-12T07:26:20;16.70;80.00
14850;DHT22;7517;48.400;11.770;2022-09-12T07:28:50;16.80;80.20
14850;DHT22;7517;48.400;11.770;2022-09-12T07:31:19;16.90;80.30
14850;DHT22;7517;48.400;11.770;2022-09-12T07:33:50;17.00;80.50
14850;DHT22;7517;48.400;11.770;2022-09-12T07:36:20;17.20;80.70
14850;DHT22;7517;48.400;11.770;2022-09-12T07:38:53;17.30;80.80
14850;DHT22;7517;48.400;11.770;2022-09-12T07:41:22;17.40;80.70
14850;DHT22;7517;48.400;11.770;2022-09-12T07:43:51;17.50;80.70
14850;DHT22;7517;48.400;11.770;2022-09-12T07:46:19;17.70;80.80
14850;DHT22;7517;48.400;11.770;2022-09-12T07:48:52;17.80;80.80
14850;DHT22;7517;48.400;11.770;2022-09-12T07:51:20;18.00;80.80
14850;DHT22;7517;48.400;11.770;2022-09-12T07:53:48;18.10;80.60
14850;DHT22;7517;48.400;11.770;2022-09-12T07:56:17;18.30;80.40
14850;DHT22;7517;48.400;11.770;2022-09-12T07:58:45;18.40;80.10
14850;DHT22;7517;48.400;11.770;2022-09-12T08:01:14;18.50;79.70
14850;DHT22;7517;48.400;11.770;2022-09-12T08:03:44;18.70;79.50
14850;DHT22;7517;48.400;11.770;2022-09-12T08:06:16;18.80;79.40
14850;DHT22;7517;48.400;11.770;2022-09-12T08:08:46;19.00;79.40
14850;DHT22;7517;48.400;11.770;2022-09-12T08:11:15;19.10;79.40
14850;DHT22;7517;48.400;11.770;2022-09-12T08:13:44;19.30;79.30
14850;DHT22;7517;48.400;11.770;2022-09-12T08:16:16;19.40;79.10
14850;DHT22;7517;48.400;11.770;2022-09-12T08:18:45;19.50;78.80
14850;DHT22;7517;48.400;11.770;2022-09-12T08:21:16;19.70;78.50
14850;DHT22;7517;48.400;11.770;2022-09-12T08:23:45;19.80;78.10
14850;DHT22;7517;48.400;11.770;2022-09-12T08:26:13;19.90;77.90
14850;DHT22;7517;48.400;11.770;2022-09-12T08:28:43;20.10;77.70
14850;DHT22;7517;48.400;11.770;2022-09-12T08:31:13;20.20;77.30
14850;DHT22;7517;48.400;11.770;2022-09-12T08:33:43;20.40;77.20
14850;DHT22;7517;48.400;11.770;2022-09-12T08:36:12;20.50;77.10
14850;DHT22;7517;48.400;11.770;2022-09-12T08:38:43;20.60;76.60
14850;DHT22;7517;48.400;11.770;2022-09-12T08:41:20;20.80;76.60
14850;DHT22;7517;48.400;11.770;2022-09-12T08:47:16;21.10;76.30
14850;DHT22;7517;48.400;11.770;2022-09-12T08:49:56;21.20;74.30
14850;DHT22;7517;48.400;11.770;2022-09-12T08:52:35;21.40;74.80
14850;DHT22;7517;48.400;11.770;2022-09-12T08:55:22;21.50;74.50
14850;DHT22;7517;48.400;11.770;2022-09-12T08:57:52;21.70;74.10
14850;DHT22;7517;48.400;11.770;2022-09-12T09:00:22;21.80;73.90
14850;DHT22;7517;48.400;11.770;2022-09-12T09:06:48;22.10;73.20
14850;DHT22;7517;48.400;11.770;2022-09-12T09:09:38;22.30;72.40
14850;DHT22;7517;48.400;11.770;2022-09-12T09:12:22;22.40;72.80
14850;DHT22;7517;48.400;11.770;2022-09-12T09:15:25;22.60;72.50
14850;DHT22;7517;48.400;11.770;2022-09-12T09:18:10;22.70;72.20
14850;DHT22;7517;48.400;11.770;2022-09-12T09:20:47;22.90;71.60
14850;DHT22;7517;48.400;11.770;2022-09-12T09:23:22;23.00;71.60
14850;DHT22;7517;48.400;11.770;2022-09-12T09:25:58;23.20;70.70
14850;DHT22;7517;48.400;11.770;2022-09-12T09:28:37;23.30;70.60
14850;DHT22;7517;48.400;11.770;2022-09-12T09:31:11;23.40;70.40
14850;DHT22;7517;48.400;11.770;2022-09-12T09:33:40;23.50;70.10
14850;DHT22;7517;48.400;11.770;2022-09-12T09:36:15;23.60;70.10
14850;DHT22;7517;48.400;11.770;2022-09-12T09:38:48;23.70;69.50
14850;DHT22;7517;48.400;11.770;2022-09-12T09:41:33;23.90;70.50
14850;DHT22;7517;48.400;11.770;2022-09-12T09:44:11;24.00;68.80
14850;DHT22;7517;48.400;11.770;2022-09-12T09:46:38;24.10;69.10
14850;DHT22;7517;48.400;11.770;2022-09-12T09:49:06;24.20;67.60
14850;DHT22;7517;48.400;11.770;2022-09-12T09:51:38;24.30;67.70
14850;DHT22;7517;48.400;11.770;2022-09-12T09:54:14;24.50;67.90
14850;DHT22;7517;48.400;11.770;2022-09-12T09:56:47;24.60;67.20
14850;DHT22;7517;48.400;11.770;2022-09-12T09:59:16;24.70;67.00
14850;DHT22;7517;48.400;11.770;2022-09-12T10:01:53;24.90;67.10
14850;DHT22;7517;48.400;11.770;2022-09-12T10:04:23;25.10;66.10
14850;DHT22;7517;48.400;11.770;2022-09-12T10:06:53;25.20;65.80
14850;DHT22;7517;48.400;11.770;2022-09-12T10:09:24;25.30;66.00
14850;DHT22;7517;48.400;11.770;2022-09-12T10:11:55;25.50;64.90
14850;DHT22;7517;48.400;11.770;2022-09-12T10:14:32;25.60;64.60
14850;DHT22;7517;48.400;11.770;2022-09-12T10:17:04;25.80;64.40
14850;DHT22;7517;48.400;11.770;2022-09-12T10:19:53;26.00;63.50
14850;DHT22;7517;48.400;11.770;2022-09-12T10:22:22;26.10;62.30
14850;DHT22;7517;48.400;11.770;2022-09-12T10:24:55;26.30;62.50
14850;DHT22;7517;48.400;11.770;2022-09-12T10:27:30;26.40;62.30
14850;DHT22;7517;48.400;11.770;2022-09-12T10:30:01;26.50;61.70
14850;DHT22;7517;48.400;11.770;2022-09-12T10:32:35;26.70;61.40
14850;DHT22;7517;48.400;11.770;2022-09-12T10:35:16;26.80;60.90
14850;DHT22;7517;48.400;11.770;2022-09-12T10:37:56;27.00;60.60
14850;DHT22;7517;48.400;11.770;2022-09-12T10:40:26;27.10;60.80
14850;DHT22;7517;48.400;11.770;2022-09-12T10:43:00;27.20;60.60
14850;DHT22;7517;48.400;11.770;2022-09-12T10:45:30;27.30;59.50
14850;DHT22;7517;48.400;11.770;2022-09-12T10:48:02;27.30;60.00
14850;DHT22;7517;48.400;11.770;2022-09-12T10:50:48;27.40;59.60
14850;DHT22;7517;48.400;11.770;2022-09-12T10:53:18;27.40;59.00
14850;DHT22;7517;48.400;11.770;2022-09-12T10:56:00;27.40;58.00
14850;DHT22;7517;48.400;11.770;2022-09-12T11:01:41;27.20;56.70
14850;DHT22;7517;48.400;11.770;2022-09-12T11:04:23;27.10;57.40
14850;DHT22;7517;48.400;11.770;2022-09-12T11:07:06;27.00;57.20
14850;DHT22;7517;48.400;11.770;2022-09-12T11:09:57;26.90;56.60
14850;DHT22;7517;48.400;11.770;2022-09-12T11:12:36;26.80;56.00
14850;DHT22;7517;48.400;11.770;2022-09-12T11:15:29;26.70;55.70
14850;DHT22;7517;48.400;11.770;2022-09-12T11:18:12;26.50;56.20
14850;DHT22;7517;48.400;11.770;2022-09-12T11:21:03;26.40;56.40
14850;DHT22;7517;48.400;11.770;2022-09-12T11:27:07;26.20;56.40
14850;DHT22;7517;48.400;11.770;2022-09-12T11:29:49;26.10;56.60
14850;DHT22;7517;48.400;11.770;2022-09-12T11:32:46;26.00;56.90
14850;DHT22;7517;48.400;11.770;2022-09-12T11:35:34;26.00;56.70
14850;DHT22;7517;48.400;11.770;2022-09-12T11:38:36;25.90;56.70
14850;DHT22;7517;48.400;11.770;2022-09-12T11:41:15;25.80;55.70
14850;DHT22;7517;48.400;11.770;2022-09-12T11:43:51;25.70;56.00
14850;DHT22;7517;48.400;11.770;2022-09-12T11:46:30;25.70;56.00
14850;DHT22;7517;48.400;11.770;2022-09-12T11:49:05;25.60;55.70
14850;DHT22;7517;48.400;11.770;2022-09-12T11:51:47;25.60;55.70
14850;DHT22;7517;48.400;11.770;2022-09-12T11:54:22;25.50;55.90
14850;DHT22;7517;48.400;11.770;2022-09-12T11:56:59;25.50;56.10
14850;DHT22;7517;48.400;11.770;2022-09-12T11:59:42;25.40;56.60
14850;DHT22;7517;48.400;11.770;2022-09-12T12:02:21;25.40;56.00
14850;DHT22;7517;48.400;11.770;2022-09-12T12:05:05;25.40;56.80
14850;DHT22;7517;48.400;11.770;2022-09-12T12:07:51;25.40;56.00
14850;DHT22;7517;48.400;11.770;2022-09-12T12:10:26;25.40;56.50
14850;DHT22;7517;48.400;11.770;2022-09-12T12:13:03;25.40;56.00
14850;DHT22;7517;48.400;11.770;2022-09-12T12:15:34;25.40;55.90
14850;DHT22;7517;48.400;11.770;2022-09-12T12:18:06;25.40;56.50
14850;DHT22;7517;48.400;11.770;2022-09-12T12:20:43;25.40;56.50
14850;DHT22;7517;48.400;11.770;2022-09-12T12:23:22;25.40;56.40
14850;DHT22;7517;48.400;11.770;2022-09-12T12:25:52;25.40;56.10
14850;DHT22;7517;48.400;11.770;2022-09-12T12:28:55;25.40;56.30
14850;DHT22;7517;48.400;11.770;2022-09-12T12:31:24;25.40;55.70
14850;DHT22;7517;48.400;11.770;2022-09-12T12:34:26;25.40;55.70
14850;DHT22;7517;48.400;11.770;2022-09-12T12:36:57;25.40;55.70
14850;DHT22;7517;48.400;11.770;2022-09-12T12:39:55;25.40;55.90
14850;DHT22;7517;48.400;11.770;2022-09-12T12:46:05;25.50;55.80
14850;DHT22;7517;48.400;11.770;2022-09-12T12:51:41;25.50;56.80
14850;DHT22;7517;48.400;11.770;2022-09-12T12:54:31;25.50;56.80
14850;DHT22;7517;48.400;11.770;2022-09-12T12:57:25;25.60;56.90
14850;DHT22;7517;48.400;11.770;2022-09-12T13:00:30;25.60;56.40
14850;DHT22;7517;48.400;11.770;2022-09-12T13:03:07;25.60;56.00
14850;DHT22;7517;48.400;11.770;2022-09-12T13:05:39;25.60;56.20
14850;DHT22;7517;48.400;11.770;2022-09-12T13:08:22;25.60;56.40
14850;DHT22;7517;48.400;11.770;2022-09-12T13:10:58;25.60;55.90
14850;DHT22;7517;48.400;11.770;2022-09-12T13:13:31;25.60;55.80
14850;DHT22;7517;48.400;11.770;2022-09-12T13:16:02;25.70;55.80
14850;DHT22;7517;48.400;11.770;2022-09-12T13:18:32;25.70;55.70
14850;DHT22;7517;48.400;11.770;2022-09-12T13:21:11;25.70;55.70
14850;DHT22;7517;48.400;11.770;2022-09-12T13:23:40;25.70;56.10
14850;DHT22;7517;48.400;11.770;2022-09-12T13:26:13;25.80;56.40
14850;DHT22;7517;48.400;11.770;2022-09-12T13:28:48;25.80;55.90
14850;DHT22;7517;48.400;11.770;2022-09-12T13:31:22;25.80;56.10
14850;DHT22;7517;48.400;11.770;2022-09-12T13:33:54;25.80;56.30
14850;DHT22;7517;48.400;11.770;2022-09-12T13:39:44;25.80;54.70
14850;DHT22;7517;48.400;11.770;2022-09-12T13:42:37;25.80;55.20
14850;DHT22;7517;48.400;11.770;2022-09-12T13:45:13;25.80;54.70
14850;DHT22;7517;48.400;11.770;2022-09-12T13:47:46;25.80;55.20
14850;DHT22;7517;48.400;11.770;2022-09-12T13:50:18;25.80;55.40
14850;DHT22;7517;48.400;11.770;2022-09-12T13:52:51;25.80;54.80
14850;DHT22;7517;48.400;11.770;2022-09-12T13:55:29;25.80;54.90
14850;DHT22;7517;48.400;11.770;2022-09-12T13:58:01;25.80;55.00
14850;DHT22;7517;48.400;11.770;2022-09-12T14:00:31;25.80;54.80
14850;DHT22;7517;48.400;11.770;2022-09-12T14:03:23;25.80;55.10
14850;DHT22;7517;48.400;11.770;2022-09-12T14:06:10;25.80;54.80
14850;DHT22;7517;48.400;11.770;2022-09-12T14:08:39;25.80;55.70
14850;DHT22;7517;48.400;11.770;2022-09-12T14:11:08;25.80;55.90
14850;DHT22;7517;48.400;11.770;2022-09-12T14:13:38;25.80;55.90
14850;DHT22;7517;48.400;11.770;2022-09-12T14:16:05;25.80;55.90
14850;DHT22;7517;48.400;11.770;2022-09-12T14:18:37;25.80;55.90
14850;DHT22;7517;48.400;11.770;2022-09-12T14:21:08;25.80;55.50
14850;DHT22;7517;48.400;11.770;2022-09-12T14:23:39;25.80;55.30
14850;DHT22;7517;48.400;11.770;2022-09-12T14:26:09;25.80;55.20
14850;DHT22;7517;48.400;11.770;2022-09-12T14:28:41;25.80;54.90
14850;DHT22;7517;48.400;11.770;2022-09-12T14:31:21;25.80;55.00
14850;DHT22;7517;48.400;11.770;2022-09-12T14:33:55;25.80;55.10
14850;DHT22;7517;48.400;11.770;2022-09-12T14:36:36;25.90;55.40
14850;DHT22;7517;48.400;11.770;2022-09-12T14:39:17;25.90;55.30
14850;DHT22;7517;48.400;11.770;2022-09-12T14:41:48;25.90;55.60
14850;DHT22;7517;48.400;11.770;2022-09-12T14:44:27;25.90;54.80
14850;DHT22;7517;48.400;11.770;2022-09-12T14:47:09;25.90;55.10
14850;DHT22;7517;48.400;11.770;2022-09-12T14:49:40;25.90;55.90
14850;DHT22;7517;48.400;11.770;2022-09-12T14:52:22;26.00;55.70
14850;DHT22;7517;48.400;11.770;2022-09-12T14:54:57;26.00;55.40
14850;DHT22;7517;48.400;11.770;2022-09-12T14:57:35;26.00;55.60
14850;DHT22;7517;48.400;11.770;2022-09-12T15:00:21;26.00;55.70
14850;DHT22;7517;48.400;11.770;2022-09-12T15:02:49;26.00;55.50
14850;DHT22;7517;48.400;11.770;2022-09-12T15:05:20;26.00;55.50
14850;DHT22;7517;48.400;11.770;2022-09-12T15:07:54;26.00;55.10
14850;DHT22;7517;48.400;11.770;2022-09-12T15:10:26;26.00;54.80
14850;DHT22;7517;48.400;11.770;2022-09-12T15:13:26;26.00;54.50
14850;DHT22;7517;48.400;11.770;2022-09-12T15:16:08;26.10;54.60
14850;DHT22;7517;48.400;11.770;2022-09-12T15:18:37;26.00;54.40
14850;DHT22;7517;48.400;11.770;2022-09-12T15:21:06;26.00;54.40
14850;DHT22;7517;48.400;11.770;2022-09-12T15:23:40;26.00;54.60
14850;DHT22;7517;48.400;11.770;2022-09-12T15:26:12;26.00;54.20
14850;DHT22;7517;48.400;11.770;2022-09-12T15:28:40;26.00;54.50
14850;DHT22;7517;48.400;11.770;2022-09-12T15:31:14;26.00;55.10
14850;DHT22;7517;48.400;11.770;2022-09-12T15:33:46;26.00;55.00
14850;DHT22;7517;48.400;11.770;2022-09-12T15:36:15;26.00;55.30
14850;DHT22;7517;48.400;11.770;2022-09-12T15:38:44;25.90;55.40
14850;DHT22;7517;48.400;11.770;2022-09-12T15:41:17;25.90;54.80
14850;DHT22;7517;48.400;11.770;2022-09-12T15:43:46;25.90;54.60
14850;DHT22;7517;48.400;11.770;2022-09-12T15:46:16;25.90;55.20
14850;DHT22;7517;48.400;11.770;2022-09-12T15:48:46;25.80;55.00
14850;DHT22;7517;48.400;11.770;2022-09-12T15:51:14;25.80;55.00
14850;DHT22;7517;48.400;11.770;2022-09-12T15:53:44;25.80;55.00
14850;DHT22;7517;48.400;11.770;2022-09-12T15:56:14;25.80;55.10
14850;DHT22;7517;48.400;11.770;2022-09-12T15:58:42;25.80;55.10
14850;DHT22;7517;48.400;11.770;2022-09-12T16:01:11;25.80;55.20
14850;DHT22;7517;48.400;11.770;2022-09-12T16:03:40;25.80;55.50
14850;DHT22;7517;48.400;11.770;2022-09-12T16:06:07;25.80;55.40
14850;DHT22;7517;48.400;11.770;2022-09-12T16:08:35;25.80;55.50
14850;DHT22;7517;48.400;11.770;2022-09-12T16:11:04;25.80;55.50
14850;DHT22;7517;48.400;11.770;2022-09-12T16:13:37;25.70;55.60
14850;DHT22;7517;48.400;11.770;2022-09-12T16:16:06;25.70;55.50
14850;DHT22;7517;48.400;11.770;2022-09-12T16:18:35;25.70;55.50
14850;DHT22;7517;48.400;11.770;2022-09-12T16:21:06;25.70;55.60
14850;DHT22;7517;48.400;11.770;2022-09-12T16:23:33;25.70;55.20
14850;DHT22;7517;48.400;11.770;2022-09-12T16:26:05;25.70;55.40
14850;DHT22;7517;48.400;11.770;2022-09-12T16:28:32;25.60;55.40
14850;DHT22;7517;48.400;11.770;2022-09-12T16:31:02;25.60;55.60
14850;DHT22;7517;48.400;11.770;2022-09-12T16:33:32;25.60;55.30
14850;DHT22;7517;48.400;11.770;2022-09-12T16:36:00;25.60;55.40
14850;DHT22;7517;48.400;11.770;2022-09-12T16:38:30;25.50;55.10
14850;DHT22;7517;48.400;11.770;2022-09-12T16:41:02;25.50;55.20